Time;durP1;ratioP1;P1;durP2;ratioP2;P2;SDS_P1;SDS_P2;PMS_P1;PMS_P2;Temp;Humidity;BMP_temperature;BMP_pressure;BME280_temperature;BME280_humidity;BME280_pressure;Samples;Min_cycle;Max_cycle;Signal;HPM_P1;HPM_P2
2021/01/29 00:00:25;;;;;;;17.92;9.02;;;2.60;99.90;;;;;;4974292;28;20101;-67
2021/01/29 00:03:07;;;;;;;23.25;9.45;;;2.60;99.90;;;;;;4973289;28;20497;-67
2021/01/29 00:06:10;;;;;;;21.65;9.45;;;2.60;99.90;;;;;;4957005;28;20070;-68
2021/01/29 00:08:50;;;;;;;19.95;9.27;;;2.60;99.90;;;;;;4963265;28;20053;-68
2021/01/29 00:15:21;;;;;;;19.23;7.38;;;2.60;99.90;;;;;;4977730;28;20041;-67
2021/01/29 00:17:52;;;;;;;26.40;10.30;;;2.60;99.90;;;;;;4974157;28;20475;-68
2021/01/29 00:20:26;;;;;;;23.45;10.88;;;2.60;99.90;;;;;;4978162;28;20398;-68
2021/01/29 00:22:57;;;;;;;24.35;10.43;;;2.60;99.90;;;;;;4977746;28;20061;-68
2021/01/29 00:25:57;;;;;;;21.90;10.00;;;2.60;99.90;;;;;;4973826;28;20047;-67
2021/01/29 00:28:32;;;;;;;19.45;9.23;;;2.60;99.90;;;;;;4962552;28;20035;-68
2021/01/29 00:31:10;;;;;;;21.13;9.50;;;2.60;99.90;;;;;;4977597;28;20054;-68
2021/01/29 00:37:59;;;;;;;23.45;9.27;;;2.50;99.90;;;;;;4977371;28;20038;-67
2021/01/29 00:40:31;;;;;;;22.67;8.60;;;2.50;99.90;;;;;;4972019;28;20043;-67
2021/01/29 00:50:33;;;;;;;17.50;7.82;;;2.50;99.90;;;;;;4977100;28;20114;-68
2021/01/29 00:53:28;;;;;;;17.60;7.97;;;2.50;99.90;;;;;;4954384;29;20066;-67
2021/01/29 00:55:57;;;;;;;;;;;2.50;99.90;;;;;;4960762;28;20046;-68
2021/01/29 00:58:35;;;;;;;17.80;7.60;;;2.50;99.90;;;;;;4959891;28;19937;-68
2021/01/29 01:01:05;;;;;;;17.52;7.72;;;2.60;99.90;;;;;;4977919;28;20417;-67
2021/01/29 01:03:42;;;;;;;20.90;8.93;;;2.60;99.90;;;;;;4976915;28;20043;-67
2021/01/29 01:06:16;;;;;;;19.58;8.38;;;2.60;99.90;;;;;;4976900;28;20047;-68
2021/01/29 01:08:42;;;;;;;22.95;9.52;;;2.60;99.90;;;;;;4972665;28;20050;-68
2021/01/29 01:11:09;;;;;;;18.10;8.57;;;2.60;99.90;;;;;;4977093;28;20470;-68
2021/01/29 01:13:43;;;;;;;18.85;8.20;;;2.60;99.90;;;;;;4972653;28;20097;-68
2021/01/29 01:16:17;;;;;;;19.90;8.77;;;2.60;99.90;;;;;;4976979;28;20113;-68
2021/01/29 01:25:40;;;;;;;18.17;8.57;;;2.60;99.90;;;;;;4976735;28;20071;-68
2021/01/29 01:28:11;;;;;;;18.73;8.20;;;2.60;99.90;;;;;;4976561;28;20043;-68
2021/01/29 01:30:44;;;;;;;22.55;8.38;;;2.60;99.90;;;;;;4976411;28;20046;-68
2021/01/29 01:33:16;;;;;;;17.80;7.75;;;2.60;99.90;;;;;;4976548;28;20050;-68
2021/01/29 01:35:43;;;;;;;20.45;8.85;;;2.60;99.90;;;;;;4959326;28;20050;-68
2021/01/29 01:38:15;;;;;;;18.83;8.07;;;2.60;99.90;;;;;;4976837;28;20054;-68
2021/01/29 01:40:45;;;;;;;21.48;8.20;;;2.60;99.90;;;;;;4976117;28;20150;-68
2021/01/29 01:43:12;;;;;;;21.33;8.93;;;2.60;99.90;;;;;;4976297;28;20435;-67
2021/01/29 01:46:27;;;;;;;20.65;9.25;;;2.70;99.90;;;;;;4976573;28;20057;-68
2021/01/29 01:49:07;;;;;;;;;;;2.60;99.90;;;;;;4976646;28;20039;-68
2021/01/29 01:51:41;;;;;;;17.83;7.45;;;2.60;99.90;;;;;;4957030;28;20274;-68
2021/01/29 01:58:16;;;;;;;20.45;9.38;;;2.50;99.90;;;;;;4975533;28;20047;-67
2021/01/29 02:01:13;;;;;;;21.88;8.60;;;2.50;99.90;;;;;;4956808;29;20051;-68
2021/01/29 02:03:56;;;;;;;21.48;8.73;;;2.50;99.90;;;;;;4973653;28;20102;-68
2021/01/29 02:06:31;;;;;;;19.60;9.65;;;2.50;99.90;;;;;;4976272;28;20054;-68
2021/01/29 02:13:17;;;;;;;23.92;10.23;;;2.50;99.90;;;;;;4975731;28;20158;-67
2021/01/29 02:15:53;;;;;;;16.80;7.70;;;2.40;99.90;;;;;;4976073;28;20051;-68
2021/01/29 02:26:21;;;;;;;16.25;7.05;;;2.40;99.90;;;;;;4975369;28;20050;-67
2021/01/29 02:33:06;;;;;;;13.52;6.90;;;2.40;99.90;;;;;;4963837;28;20041;-68
2021/01/29 02:36:17;;;;;;;15.63;7.28;;;2.30;99.90;;;;;;4972253;28;20042;-68
2021/01/29 02:39:03;;;;;;;14.35;6.50;;;2.40;99.90;;;;;;4975450;28;20043;-68
2021/01/29 02:41:53;;;;;;;14.45;7.18;;;2.40;99.90;;;;;;4960824;28;20055;-68
2021/01/29 02:48:51;;;;;;;16.17;7.20;;;2.30;99.90;;;;;;4974884;28;20041;-68
2021/01/29 02:52:00;;;;;;;19.40;7.15;;;2.30;99.90;;;;;;4974927;28;20046;-68
2021/01/29 02:55:17;;;;;;;19.52;8.27;;;2.30;99.90;;;;;;4955950;29;20178;-68
2021/01/29 03:02:15;;;;;;;17.65;8.15;;;2.30;99.90;;;;;;4940033;29;20043;-68
2021/01/29 03:09:11;;;;;;;24.35;9.10;;;2.30;99.90;;;;;;4955137;29;20062;-68
2021/01/29 03:11:58;;;;;;;16.30;7.95;;;2.30;99.90;;;;;;4953642;29;20442;-68
2021/01/29 03:18:42;;;;;;;17.10;7.80;;;2.30;99.90;;;;;;4955283;29;20034;-68
2021/01/29 03:21:48;;;;;;;16.83;7.57;;;2.30;99.90;;;;;;4951182;29;20047;-68
2021/01/29 03:24:34;;;;;;;16.67;6.75;;;2.40;99.90;;;;;;4955640;28;20126;-68
2021/01/29 03:31:14;;;;;;;14.82;7.28;;;2.40;99.90;;;;;;4954909;29;20081;-67
2021/01/29 03:34:01;;;;;;;17.55;7.63;;;2.30;99.90;;;;;;4936291;29;20048;-68
2021/01/29 03:36:58;;;;;;;14.90;6.82;;;2.30;99.90;;;;;;4951605;29;20368;-67
2021/01/29 03:39:38;;;;;;;18.25;8.70;;;2.40;99.90;;;;;;4955015;28;20043;-68
2021/01/29 03:42:25;;;;;;;17.73;7.35;;;2.40;99.90;;;;;;4944065;29;20047;-68
2021/01/29 03:49:09;;;;;;;16.17;6.95;;;2.40;99.90;;;;;;4958980;29;20050;-69
2021/01/29 03:52:02;;;;;;;20.50;8.38;;;2.40;99.90;;;;;;4959015;29;20147;-69
2021/01/29 04:06:39;;;;;;;14.93;6.10;;;2.30;99.90;;;;;;4958895;29;20494;-70
2021/01/29 04:16:21;;;;;;;13.52;7.40;;;2.40;99.90;;;;;;4977651;28;20525;-69
2021/01/29 04:18:51;;;;;;;17.48;7.20;;;2.30;99.90;;;;;;4977933;28;20118;-70
2021/01/29 04:21:25;;;;;;;15.13;7.28;;;2.30;99.90;;;;;;4977737;28;20038;-70
2021/01/29 04:24:17;;;;;;;15.52;7.05;;;2.30;99.90;;;;;;4977665;28;20554;-70
2021/01/29 04:27:14;;;;;;;15.40;7.35;;;2.30;99.90;;;;;;4970545;28;20078;-70
2021/01/29 04:33:50;;;;;;;16.83;7.03;;;2.30;99.90;;;;;;4977536;28;20042;-70
2021/01/29 04:36:22;;;;;;;18.02;8.13;;;2.30;99.90;;;;;;4977432;28;20043;-70
2021/01/29 04:39:22;;;;;;;19.55;8.98;;;2.30;99.90;;;;;;4958481;29;20474;-70
2021/01/29 04:42:08;;;;;;;13.82;6.68;;;2.20;99.90;;;;;;4953827;28;20055;-70
2021/01/29 04:48:52;;;;;;;17.63;8.13;;;2.20;99.90;;;;;;4972884;28;20553;-70
2021/01/29 04:51:59;;;;;;;13.77;6.30;;;2.10;99.90;;;;;;4976109;28;20050;-69
2021/01/29 04:54:43;;;;;;;14.25;6.80;;;2.20;99.90;;;;;;4976617;28;20209;-69
2021/01/29 04:57:52;;;;;;;11.55;6.18;;;2.20;99.90;;;;;;4964076;28;20047;-69
2021/01/29 05:01:11;;;;;;;13.82;6.97;;;2.20;99.90;;;;;;4970375;28;20105;-70
2021/01/29 05:03:58;;;;;;;13.80;6.78;;;2.10;99.90;;;;;;4976139;28;20047;-70
2021/01/29 05:06:52;;;;;;;13.05;6.57;;;2.10;99.90;;;;;;4972471;28;20054;-69
2021/01/29 05:09:44;;;;;;;15.35;7.57;;;2.10;99.90;;;;;;4976917;28;20406;-70
2021/01/29 05:16:35;;;;;;;12.43;6.35;;;2.10;99.90;;;;;;4976867;28;20085;-70
2021/01/29 05:26:48;;;;;;;13.90;6.15;;;2.10;99.90;;;;;;4975820;28;20098;-70
2021/01/29 05:29:39;;;;;;;14.82;7.20;;;2.10;99.90;;;;;;4974711;28;20041;-69
2021/01/29 05:36:23;;;;;;;14.52;7.10;;;2.00;99.90;;;;;;4976211;28;20407;-69
2021/01/29 05:39:27;;;;;;;11.88;6.57;;;2.10;99.90;;;;;;4976384;28;20507;-69
2021/01/29 05:45:52;;;;;;;11.55;5.85;;;2.00;99.90;;;;;;4967657;28;20445;-70
2021/01/29 05:48:56;;;;;;;10.10;5.10;;;2.00;99.90;;;;;;4956997;29;20047;-70
2021/01/29 05:52:18;;;;;;;11.55;4.63;;;2.00;99.90;;;;;;4957033;29;20510;-69
2021/01/29 05:59:27;;;;;;;12.68;6.03;;;2.00;99.90;;;;;;4916418;29;20056;-70
2021/01/29 06:01:59;;;;;;;;;;;2.00;99.90;;;;;;4878999;29;20069;-70
2021/01/29 06:08:42;;;;;;;10.48;4.95;;;2.00;99.90;;;;;;4916260;29;20535;-70
2021/01/29 06:11:44;;;;;;;12.57;5.55;;;2.00;99.90;;;;;;4917032;29;20054;-70
2021/01/29 06:14:47;;;;;;;9.98;5.43;;;2.00;99.90;;;;;;4975557;28;20570;-70
2021/01/29 06:21:25;;;;;;;8.88;4.82;;;2.10;99.90;;;;;;4975446;28;20037;-70
2021/01/29 06:24:45;;;;;;;8.93;4.78;;;2.00;99.90;;;;;;4955812;28;20482;-70
2021/01/29 06:27:32;;;;;;;10.68;5.50;;;2.00;99.90;;;;;;4911241;28;20086;-69
2021/01/29 06:38:09;;;;;;;9.52;5.00;;;2.10;99.90;;;;;;4975169;28;20030;-69
2021/01/29 06:41:17;;;;;;;9.70;5.20;;;2.00;99.90;;;;;;4969439;28;20047;-70
2021/01/29 06:44:14;;;;;;;11.13;5.70;;;2.00;99.90;;;;;;4975342;28;20042;-69
2021/01/29 06:46:58;;;;;;;9.07;4.78;;;2.00;99.90;;;;;;4958232;28;20058;-70
2021/01/29 06:57:05;;;;;;;8.38;4.65;;;2.00;99.90;;;;;;4918701;29;20060;-70
2021/01/29 07:00:09;;;;;;;7.57;4.32;;;2.00;99.90;;;;;;4922365;29;20126;-70
2021/01/29 07:06:45;;;;;;;9.48;4.25;;;2.00;99.90;;;;;;4936036;29;20054;-69
2021/01/29 07:16:42;;;;;;;7.20;4.18;;;2.00;99.90;;;;;;4935234;29;20403;-69
2021/01/29 07:30:41;;;;;;;7.93;3.75;;;2.00;99.90;;;;;;4935882;29;20050;-70
2021/01/29 07:33:14;;;;;;;7.57;4.40;;;2.00;99.90;;;;;;4930525;29;20055;-70
2021/01/29 07:36:31;;;;;;;7.65;3.78;;;2.00;99.90;;;;;;4934120;29;20052;-70
2021/01/29 07:44:00;;;;;;;7.65;3.92;;;2.00;99.90;;;;;;4927725;29;20035;-70
2021/01/29 07:46:42;;;;;;;6.63;3.53;;;2.00;99.90;;;;;;4934729;29;20085;-70
2021/01/29 07:49:45;;;;;;;6.07;3.30;;;2.00;99.90;;;;;;4933343;29;20510;-68
2021/01/29 07:56:29;;;;;;;7.88;3.53;;;2.10;99.90;;;;;;4958169;28;20110;-70
2021/01/29 08:09:39;;;;;;;6.55;3.10;;;2.10;99.90;;;;;;4970272;28;20054;-66
2021/01/29 08:19:31;;;;;;;6.53;3.53;;;2.20;99.90;;;;;;4974412;28;20051;-66
2021/01/29 08:26:30;;;;;;;5.57;2.97;;;2.20;99.90;;;;;;4973791;28;20077;-66
2021/01/29 08:32:55;;;;;;;7.10;3.58;;;2.20;99.90;;;;;;4962754;28;20029;-67
2021/01/29 08:39:20;;;;;;;3.88;2.20;;;2.10;99.90;;;;;;4958363;28;20094;-67
2021/01/29 08:42:16;;;;;;;;;;;2.20;99.90;;;;;;4977814;28;20082;-70
2021/01/29 08:48:48;;;;;;;5.60;3.10;;;2.20;99.90;;;;;;4976990;28;20037;-71
2021/01/29 08:51:39;;;;;;;6.13;3.38;;;2.20;99.90;;;;;;4969753;28;20093;-71
2021/01/29 09:02:14;;;;;;;5.07;2.80;;;2.10;99.90;;;;;;4969700;28;20071;-69
2021/01/29 09:04:49;;;;;;;5.00;2.67;;;2.20;99.90;;;;;;4976806;28;20042;-68
2021/01/29 09:11:47;;;;;;;5.32;3.10;;;2.30;99.90;;;;;;4976831;28;20434;-68
2021/01/29 09:14:37;;;;;;;4.82;3.13;;;2.20;99.90;;;;;;4946867;28;20074;-68
2021/01/29 09:17:36;;;;;;;5.45;3.25;;;2.30;99.90;;;;;;4976595;28;20039;-68
2021/01/29 09:24:20;;;;;;;6.55;3.40;;;2.30;99.90;;;;;;4976537;28;20128;-68
2021/01/29 09:27:07;;;;;;;3.75;2.33;;;2.30;99.90;;;;;;4974309;28;20532;-68
2021/01/29 09:33:59;;;;;;;5.85;3.30;;;2.40;99.90;;;;;;4976252;28;20038;-67
2021/01/29 09:36:34;;;;;;;6.88;3.33;;;2.30;99.90;;;;;;4976643;28;20170;-67
2021/01/29 09:39:26;;;;;;;5.47;2.67;;;2.40;99.90;;;;;;4961190;28;20047;-70
2021/01/29 09:42:10;;;;;;;6.90;3.10;;;2.40;99.90;;;;;;4960156;28;20093;-73
2021/01/29 09:45:00;;;;;;;6.30;3.38;;;2.50;99.90;;;;;;4976857;28;20105;-72
2021/01/29 09:51:55;;;;;;;5.40;2.90;;;2.40;99.90;;;;;;4975991;28;20101;-71
2021/01/29 09:57:31;;;;;;;6.75;2.80;;;2.40;99.90;;;;;;4974153;28;19929;-70
2021/01/29 10:04:35;;;;;;;5.18;2.83;;;2.50;99.90;;;;;;4975687;28;20554;-70
2021/01/29 10:11:30;;;;;;;4.80;2.53;;;2.50;99.90;;;;;;4878736;29;20031;-69
2021/01/29 10:14:03;;;;;;;7.32;3.20;;;2.60;99.90;;;;;;4878830;29;20124;-70
2021/01/29 10:24:14;;;;;;;4.72;2.20;;;2.60;99.90;;;;;;4975375;28;20050;-70
2021/01/29 10:27:22;;;;;;;5.28;2.67;;;2.60;99.90;;;;;;4975299;28;20074;-69
2021/01/29 10:34:15;;;;;;;4.63;2.50;;;2.70;99.90;;;;;;4915923;29;20043;-71
2021/01/29 10:37:21;;;;;;;4.25;2.40;;;2.70;99.90;;;;;;4916366;29;20448;-68
2021/01/29 10:44:12;;;;;;;5.13;2.63;;;2.70;99.90;;;;;;4915500;29;20050;-68
2021/01/29 10:46:57;;;;;;;4.65;2.60;;;2.70;99.90;;;;;;4915279;29;20099;-69
2021/01/29 10:57:09;;;;;;;5.53;2.50;;;2.70;99.90;;;;;;4912178;29;20504;-71
2021/01/29 10:59:55;;;;;;;5.97;3.55;;;2.80;99.90;;;;;;4915376;29;20061;-71
2021/01/29 11:06:38;;;;;;;6.60;2.80;;;2.80;99.90;;;;;;4920826;29;20050;-70
2021/01/29 11:09:13;;;;;;;6.20;2.58;;;2.80;99.90;;;;;;4955533;28;20056;-71
2021/01/29 11:11:52;;;;;;;5.43;3.03;;;2.80;99.90;;;;;;4955445;28;20126;-70
2021/01/29 11:14:43;;;;;;;5.32;2.90;;;2.80;99.90;;;;;;4955326;28;20047;-72
2021/01/29 11:21:33;;;;;;;4.78;2.38;;;2.90;99.90;;;;;;4955188;29;20038;-70
2021/01/29 11:24:45;;;;;;;3.95;2.28;;;2.90;99.90;;;;;;4955312;29;20050;-71
2021/01/29 11:27:32;;;;;;;5.28;2.42;;;3.00;99.90;;;;;;4955204;29;20070;-71
2021/01/29 11:30:07;;;;;;;4.80;2.88;;;3.00;99.90;;;;;;4955067;28;20126;-72
2021/01/29 11:37:08;;;;;;;5.47;2.80;;;2.90;99.90;;;;;;4954923;29;20398;-69
2021/01/29 11:46:49;;;;;;;6.95;2.17;;;3.00;99.90;;;;;;4900834;29;20055;-68
2021/01/29 11:49:23;;;;;;;5.30;3.00;;;3.10;99.90;;;;;;4909038;29;20128;-66
2021/01/29 11:59:44;;;;;;;5.00;2.60;;;3.10;99.90;;;;;;4899022;29;20059;-67
2021/01/29 12:02:24;;;;;;;6.25;3.22;;;3.10;99.90;;;;;;4938350;28;20046;-67
2021/01/29 12:09:23;;;;;;;5.65;2.60;;;3.10;99.90;;;;;;4958780;29;20098;-67
2021/01/29 12:12:02;;;;;;;6.20;3.03;;;3.20;99.90;;;;;;4957212;29;20053;-67
2021/01/29 12:15:01;;;;;;;7.47;3.83;;;3.30;99.90;;;;;;4955985;29;20039;-68
2021/01/29 12:21:52;;;;;;;3.22;1.98;;;3.30;99.90;;;;;;4958281;29;20086;-67
2021/01/29 12:24:51;;;;;;;3.60;2.28;;;3.30;99.90;;;;;;4958208;29;20040;-67
2021/01/29 12:27:38;;;;;;;3.55;2.17;;;3.40;99.90;;;;;;4958235;29;20476;-67
2021/01/29 12:30:23;;;;;;;4.07;2.17;;;3.40;99.90;;;;;;4944874;29;20091;-67
2021/01/29 12:33:12;;;;;;;5.43;2.22;;;3.40;99.90;;;;;;4958214;29;20054;-68
2021/01/29 12:39:44;;;;;;;4.03;2.13;;;3.40;99.90;;;;;;4957927;29;20038;-68
2021/01/29 12:42:20;;;;;;;3.72;1.77;;;3.50;99.90;;;;;;4958341;28;20035;-69
2021/01/29 12:45:09;;;;;;;4.60;2.47;;;3.50;99.90;;;;;;4957253;29;20062;-68
2021/01/29 12:47:48;;;;;;;4.07;2.13;;;3.60;99.90;;;;;;4958003;28;20122;-68
2021/01/29 12:50:48;;;;;;;4.30;2.25;;;3.60;99.90;;;;;;4945261;29;20047;-67
2021/01/29 12:53:42;;;;;;;4.32;2.38;;;3.60;99.90;;;;;;4948587;29;20050;-67
2021/01/29 12:56:58;;;;;;;4.85;2.42;;;3.70;99.90;;;;;;4954501;29;20046;-68
2021/01/29 12:59:34;;;;;;;4.20;2.17;;;3.70;99.90;;;;;;4953217;29;20059;-67
2021/01/29 13:02:24;;;;;;;6.55;3.25;;;3.70;99.90;;;;;;4938630;29;20048;-68
2021/01/29 13:08:49;;;;;;;3.58;1.85;;;3.80;99.90;;;;;;4926059;29;20440;-67
2021/01/29 13:11:55;;;;;;;4.43;2.22;;;3.90;99.90;;;;;;4938435;29;20060;-69
2021/01/29 13:22:04;;;;;;;19.75;3.08;;;4.80;99.90;;;;;;4938054;29;20034;-69
2021/01/29 13:24:36;;;;;;;;;;;5.20;99.90;;;;;;4938536;29;20432;-67
2021/01/29 13:27:13;;;;;;;24.35;4.40;;;5.50;99.90;;;;;;4920708;29;19931;-67
2021/01/29 13:30:15;;;;;;;17.60;4.15;;;5.70;99.90;;;;;;4938016;29;20429;-68
2021/01/29 13:37:01;;;;;;;27.35;3.97;;;6.00;99.90;;;;;;4937685;29;20200;-70
2021/01/29 13:39:37;;;;;;;16.95;3.67;;;6.10;99.90;;;;;;4937999;29;20040;-69
2021/01/29 13:42:35;;;;;;;16.30;3.03;;;6.20;99.90;;;;;;4933986;29;20059;-69
2021/01/29 13:48:43;;;;;;;26.55;4.10;;;6.30;99.90;;;;;;4937519;29;20435;-69
2021/01/29 13:52:01;;;;;;;21.63;5.10;;;6.40;99.90;;;;;;4952341;29;20040;-67
2021/01/29 13:54:37;;;;;;;26.80;4.78;;;6.50;99.90;;;;;;4937764;29;20506;-69
2021/01/29 13:57:31;;;;;;;11.30;3.28;;;6.50;99.90;;;;;;4931951;29;20475;-69
2021/01/29 14:00:09;;;;;;;32.17;4.15;;;6.50;99.90;;;;;;4940231;29;20503;-67
2021/01/29 14:03:01;;;;;;;21.15;3.78;;;6.50;99.90;;;;;;4956697;28;20039;-68
2021/01/29 14:09:36;;;;;;;30.58;4.95;;;6.60;99.90;;;;;;4956307;28;20034;-66
2021/01/29 14:12:24;;;;;;;9.95;3.17;;;6.60;99.90;;;;;;4950425;29;20491;-66
2021/01/29 14:22:49;;;;;;;17.60;3.40;;;6.60;99.90;;;;;;4951378;29;20645;-69
2021/01/29 14:29:36;;;;;;;20.85;4.35;;;6.60;99.90;;;;;;4951283;29;20144;-68
2021/01/29 14:40:01;;;;;;;17.60;3.10;;;6.70;99.90;;;;;;4955870;29;20039;-68
2021/01/29 14:50:17;;;;;;;16.52;3.70;;;6.80;99.90;;;;;;4950137;29;20066;-67
2021/01/29 14:57:06;;;;;;;14.10;3.25;;;6.80;99.90;;;;;;4955496;28;20053;-67
2021/01/29 14:59:46;;;;;;;21.20;3.25;;;6.80;99.90;;;;;;4973736;28;20189;-67
2021/01/29 15:02:31;;;;;;;23.02;4.43;;;6.70;99.90;;;;;;4974808;28;20046;-67
2021/01/29 15:05:27;;;;;;;16.80;3.22;;;6.80;99.90;;;;;;4975049;28;20082;-66
2021/01/29 15:07:57;;;;;;;17.27;3.75;;;6.80;99.90;;;;;;4962057;28;20130;-67
2021/01/29 15:14:36;;;;;;;12.50;3.75;;;6.80;99.90;;;;;;4974271;28;20146;-68
2021/01/29 15:17:22;;;;;;;10.20;4.07;;;6.60;99.90;;;;;;4974514;28;20053;-67
2021/01/29 15:20:30;;;;;;;6.57;3.17;;;6.30;99.90;;;;;;4957032;28;20054;-68
2021/01/29 15:27:04;;;;;;;8.82;4.07;;;5.70;99.90;;;;;;4974320;28;20046;-69
2021/01/29 15:30:17;;;;;;;6.68;4.00;;;5.40;99.90;;;;;;4969279;28;20069;-67
2021/01/29 15:32:58;;;;;;;6.45;3.75;;;5.10;99.90;;;;;;4974502;28;20067;-67
2021/01/29 15:35:49;;;;;;;5.88;3.47;;;4.90;99.90;;;;;;4974368;28;20105;-68
2021/01/29 15:42:09;;;;;;;13.00;6.82;;;4.60;99.90;;;;;;4974095;28;20074;-68
2021/01/29 15:44:42;;;;;;;7.13;4.57;;;4.50;99.90;;;;;;4974405;28;20122;-69
2021/01/29 15:47:47;;;;;;;8.35;4.18;;;4.30;99.90;;;;;;4971683;28;20043;-68
2021/01/29 15:50:51;;;;;;;5.15;3.45;;;4.30;99.90;;;;;;4974408;28;20061;-68
2021/01/29 15:57:45;;;;;;;7.00;4.28;;;4.10;99.90;;;;;;4974134;28;20500;-70
2021/01/29 16:00:37;;;;;;;11.98;7.68;;;3.90;99.90;;;;;;4954900;28;20063;-69
2021/01/29 16:03:05;;;;;;;10.25;6.00;;;3.80;99.90;;;;;;4944828;28;20071;-70
2021/01/29 16:05:56;;;;;;;22.10;11.77;;;3.60;99.90;;;;;;4974120;28;20050;-67
2021/01/29 16:12:41;;;;;;;11.07;7.07;;;3.50;99.90;;;;;;4973814;28;20065;-69
2021/01/29 16:19:37;;;;;;;11.05;7.28;;;3.50;99.90;;;;;;4973950;28;20037;-67
2021/01/29 16:22:17;;;;;;;9.80;5.90;;;3.30;99.90;;;;;;4973814;28;20098;-68
2021/01/29 16:25:17;;;;;;;9.60;5.90;;;3.30;99.90;;;;;;4973968;28;20070;-70
2021/01/29 16:32:08;;;;;;;9.70;6.07;;;3.20;99.90;;;;;;4973889;28;20135;-68
2021/01/29 16:34:45;;;;;;;11.95;7.45;;;3.10;99.90;;;;;;4974650;28;20509;-68
2021/01/29 16:37:15;;;;;;;11.13;6.95;;;3.00;99.90;;;;;;4969579;28;20051;-66
2021/01/29 16:39:50;;;;;;;9.02;5.75;;;2.90;99.90;;;;;;4973813;28;20047;-69
2021/01/29 16:42:46;;;;;;;9.27;6.32;;;2.90;99.90;;;;;;4973741;28;20070;-66
2021/01/29 16:49:44;;;;;;;8.25;4.50;;;2.70;99.90;;;;;;4974134;28;20513;-66
2021/01/29 16:56:33;;;;;;;7.20;3.90;;;2.70;99.90;;;;;;4977195;28;20398;-66
2021/01/29 16:59:10;;;;;;;6.47;3.67;;;2.70;99.90;;;;;;4976761;28;20066;-68
2021/01/29 17:01:51;;;;;;;6.43;3.33;;;2.60;99.90;;;;;;4958341;28;20074;-67
2021/01/29 17:04:20;;;;;;;6.25;3.55;;;2.60;99.90;;;;;;4977520;28;20070;-68
2021/01/29 17:07:39;;;;;;;6.45;4.30;;;2.60;99.90;;;;;;4973248;28;20058;-69
2021/01/29 17:14:10;;;;;;;6.78;3.65;;;2.30;99.90;;;;;;4976771;28;20045;-67
2021/01/29 17:24:24;;;;;;;4.20;2.70;;;2.10;99.90;;;;;;4976443;28;20045;-68
2021/01/29 17:26:58;;;;;;;5.10;3.13;;;2.00;99.90;;;;;;4976519;28;20045;-69
2021/01/29 17:29:59;;;;;;;3.60;2.40;;;2.10;99.90;;;;;;4976992;28;20050;-65
2021/01/29 17:32:41;;;;;;;13.70;6.35;;;2.00;99.90;;;;;;4976443;28;20117;-66
2021/01/29 17:35:26;;;;;;;27.08;12.75;;;2.10;99.90;;;;;;4971875;28;20047;-65
2021/01/29 17:42:12;;;;;;;3.88;2.38;;;2.10;99.90;;;;;;4976335;28;20157;-71
2021/01/29 17:44:59;;;;;;;7.72;3.53;;;2.10;99.90;;;;;;4976106;28;20061;-69
2021/01/29 17:48:16;;;;;;;4.90;2.70;;;2.00;99.90;;;;;;4976292;28;20494;-70
2021/01/29 17:51:22;;;;;;;5.90;2.55;;;1.90;99.90;;;;;;4944856;28;20144;-69
2021/01/29 17:57:32;;;;;;;3.13;2.05;;;1.80;99.90;;;;;;4973911;28;20053;-71
2021/01/29 18:00:32;;;;;;;2.78;1.67;;;1.60;99.90;;;;;;4937472;29;20050;-67
2021/01/29 18:07:17;;;;;;;2.45;1.38;;;1.60;99.90;;;;;;4937403;29;20046;-65
2021/01/29 18:10:23;;;;;;;2.10;1.20;;;1.50;99.90;;;;;;4937311;29;20044;-67
2021/01/29 18:17:17;;;;;;;1.60;1.08;;;1.30;99.90;;;;;;4933691;29;20047;-67
2021/01/29 18:20:02;;;;;;;3.85;1.90;;;1.30;99.90;;;;;;4937234;29;20044;-67
2021/01/29 18:22:28;;;;;;;4.60;1.52;;;1.20;99.90;;;;;;4937184;29;20499;-67
2021/01/29 18:25:25;;;;;;;3.13;1.63;;;1.20;99.90;;;;;;4937212;29;20055;-67
2021/01/29 18:27:58;;;;;;;2.35;1.70;;;1.10;99.90;;;;;;4922915;29;20567;-70
2021/01/29 18:30:34;;;;;;;3.00;1.70;;;1.00;99.90;;;;;;4936848;29;20480;-68
2021/01/29 18:33:19;;;;;;;2.85;1.73;;;1.00;99.90;;;;;;4936870;29;20492;-67
2021/01/29 18:39:47;;;;;;;28.30;10.65;;;0.90;99.90;;;;;;4936745;29;20490;-69
2021/01/29 18:49:47;;;;;;;22.80;8.75;;;1.00;99.90;;;;;;4936521;29;20066;-68
2021/01/29 18:52:25;;;;;;;34.05;13.65;;;1.00;99.90;;;;;;4932575;29;20096;-68
2021/01/29 18:54:53;;;;;;;42.63;16.25;;;0.90;99.90;;;;;;4936808;29;20460;-68
2021/01/29 18:57:28;;;;;;;56.30;18.23;;;0.90;99.90;;;;;;4936744;29;20067;-69
2021/01/29 18:59:58;;;;;;;30.70;13.82;;;0.80;99.90;;;;;;4932148;29;20055;-69
2021/01/29 19:09:46;;;;;;;39.20;16.90;;;0.70;99.90;;;;;;4935616;29;20139;-70
2021/01/29 19:12:18;;;;;;;55.33;25.27;;;0.80;99.90;;;;;;4936854;29;20079;-68
2021/01/29 19:14:47;;;;;;;47.30;19.67;;;0.90;99.90;;;;;;4936273;29;20043;-68
2021/01/29 19:17:19;;;;;;;56.42;21.70;;;1.00;99.90;;;;;;4931567;29;20059;-67
2021/01/29 19:19:47;;;;;;;24.58;11.95;;;0.90;99.90;;;;;;4933582;29;20051;-66
2021/01/29 19:22:19;;;;;;;28.35;14.45;;;1.00;99.90;;;;;;4935345;29;20165;-67
2021/01/29 19:24:47;;;;;;;11.93;8.00;;;0.90;99.90;;;;;;4930075;29;20051;-68
2021/01/29 19:27:18;;;;;;;7.65;4.85;;;0.90;99.90;;;;;;4948561;29;20058;-67
2021/01/29 19:37:33;;;;;;;13.07;5.38;;;0.90;99.90;;;;;;4935703;29;20035;-70
2021/01/29 19:40:21;;;;;;;7.07;4.28;;;0.80;99.90;;;;;;4932007;29;20042;-70
2021/01/29 19:43:00;;;;;;;10.07;5.50;;;0.70;99.90;;;;;;4919104;29;20051;-72
2021/01/29 19:45:37;;;;;;;6.85;4.50;;;0.70;99.90;;;;;;4934728;29;20403;-69
2021/01/29 19:52:16;;;;;;;7.65;3.65;;;0.50;99.90;;;;;;4935906;29;20039;-75
2021/01/29 19:54:47;;;;;;;5.93;4.00;;;0.50;99.90;;;;;;4935934;29;20056;-70
2021/01/29 19:57:21;;;;;;;7.50;4.47;;;0.60;99.90;;;;;;4930501;29;20054;-74
2021/01/29 19:59:51;;;;;;;;;;;0.60;99.90;;;;;;4952437;29;20054;-70
2021/01/29 20:02:25;;;;;;;6.85;4.00;;;0.60;99.90;;;;;;4955465;28;20343;-69
2021/01/29 20:04:53;;;;;;;9.38;4.22;;;0.60;99.90;;;;;;4954827;28;20054;-66
2021/01/29 20:07:27;;;;;;;6.32;3.70;;;0.60;99.90;;;;;;4954841;28;20078;-66
2021/01/29 20:10:00;;;;;;;7.13;3.83;;;0.60;99.90;;;;;;4944024;29;20053;-66
2021/01/29 20:12:29;;;;;;;21.50;10.07;;;0.60;99.90;;;;;;4953752;29;20043;-66
2021/01/29 20:14:57;;;;;;;19.10;9.23;;;0.70;99.90;;;;;;4954702;28;20137;-68
2021/01/29 20:17:28;;;;;;;10.32;5.13;;;0.60;99.90;;;;;;4954725;28;20069;-65
2021/01/29 20:19:56;;;;;;;6.53;3.88;;;0.60;99.90;;;;;;4948587;29;20055;-65
2021/01/29 20:22:24;;;;;;;5.65;3.60;;;0.60;99.90;;;;;;4954639;28;20047;-65
2021/01/29 20:32:18;;;;;;;7.75;2.83;;;0.50;99.90;;;;;;4958180;29;20042;-66
2021/01/29 20:34:48;;;;;;;3.75;2.22;;;0.50;99.90;;;;;;4957338;29;20047;-64
2021/01/29 20:37:20;;;;;;;6.22;2.80;;;0.60;99.90;;;;;;4972864;28;20479;-65
2021/01/29 20:39:46;;;;;;;5.13;3.13;;;0.50;99.90;;;;;;4956687;29;20043;-68
2021/01/29 20:42:33;;;;;;;2.88;1.80;;;0.50;99.90;;;;;;4939218;29;20127;-69
2021/01/29 20:45:18;;;;;;;18.73;7.03;;;0.50;99.90;;;;;;4949268;29;20047;-65
2021/01/29 20:47:46;;;;;;;19.00;8.95;;;0.50;99.90;;;;;;4942141;29;20044;-66
2021/01/29 20:50:21;;;;;;;8.15;4.10;;;0.60;99.90;;;;;;4958133;28;20057;-66
2021/01/29 20:53:13;;;;;;;4.38;2.80;;;0.60;99.90;;;;;;4957039;29;20098;-65
2021/01/29 20:55:53;;;;;;;3.55;2.45;;;0.60;99.90;;;;;;4970597;28;20048;-68
2021/01/29 20:58:19;;;;;;;10.38;5.25;;;0.70;99.90;;;;;;4962695;28;20055;-65
2021/01/29 21:01:36;;;;;;;31.83;14.77;;;0.70;99.90;;;;;;4977228;28;20057;-65
2021/01/29 21:07:45;;;;;;;6.43;3.70;;;0.60;99.90;;;;;;4973317;28;20039;-66
2021/01/29 21:10:20;;;;;;;4.47;2.53;;;0.60;99.90;;;;;;4976801;28;20035;-72
2021/01/29 21:12:49;;;;;;;4.43;3.00;;;0.70;99.90;;;;;;4977045;28;20059;-68
2021/01/29 21:15:19;;;;;;;5.03;2.50;;;0.60;99.90;;;;;;4976537;28;20475;-67
2021/01/29 21:17:46;;;;;;;3.72;2.05;;;0.60;99.90;;;;;;4972618;28;20046;-65
2021/01/29 21:20:19;;;;;;;7.40;3.00;;;0.60;99.90;;;;;;4976893;28;20046;-65
2021/01/29 21:22:53;;;;;;;3.95;2.17;;;0.60;99.90;;;;;;4976401;28;20046;-65
2021/01/29 21:32:42;;;;;;;7.35;3.45;;;0.70;99.90;;;;;;4971818;28;20505;-67
2021/01/29 21:35:20;;;;;;;4.03;2.63;;;0.60;99.90;;;;;;4976000;28;20057;-66
2021/01/29 21:37:52;;;;;;;4.80;2.55;;;0.60;99.90;;;;;;4972564;28;20111;-65
2021/01/29 21:40:22;;;;;;;5.53;3.03;;;0.70;99.90;;;;;;4976973;28;20049;-67
2021/01/29 21:42:52;;;;;;;7.32;3.15;;;0.60;99.90;;;;;;4976405;28;20117;-71
2021/01/29 21:45:34;;;;;;;3.80;2.22;;;0.80;99.90;;;;;;4976615;28;20055;-71
2021/01/29 21:48:25;;;;;;;5.30;2.50;;;0.70;99.90;;;;;;4976094;28;20051;-65
2021/01/29 21:51:05;;;;;;;4.80;2.45;;;0.70;99.90;;;;;;4963186;28;20091;-67
2021/01/29 21:57:42;;;;;;;5.03;1.85;;;0.80;99.90;;;;;;4975875;28;20126;-67
2021/01/29 22:00:57;;;;;;;4.50;2.10;;;0.70;99.90;;;;;;4956793;29;20064;-70
2021/01/29 22:03:48;;;;;;;13.07;5.53;;;0.80;99.90;;;;;;4974488;28;20038;-66
2021/01/29 22:10:16;;;;;;;15.05;6.30;;;0.80;99.90;;;;;;4975783;28;20042;-66
2021/01/29 22:12:43;;;;;;;4.20;2.13;;;0.80;99.90;;;;;;4956590;28;20106;-64
2021/01/29 22:15:16;;;;;;;4.25;1.75;;;0.90;99.90;;;;;;4974602;28;20121;-63